sensor_id;sensor_type;location;lat;lon;timestamp;temperature;humidity
41592;DHT22;28026;48.562;14.440;2023-12-20T00:00:42;4.70;99.90
41592;DHT22;28026;48.562;14.440;2023-12-20T00:03:13;4.60;99.90
41592;DHT22;28026;48.562;14.440;2023-12-20T00:05:45;4.60;99.90
41592;DHT22;28026;48.562;14.440;2023-12-20T00:08:17;4.50;99.90
41592;DHT22;28026;48.562;14.440;2023-12-20T00:10:48;4.60;99.90
41592;DHT22;28026;48.562;14.440;2023-12-20T00:13:19;4.60;99.90
41592;DHT22;28026;48.562;14.440;2023-12-20T00:15:50;4.60;99.90
41592;DHT22;28026;48.562;14.440;2023-12-20T00:18:20;4.70;99.90
41592;DHT22;28026;48.562;14.440;2023-12-20T00:20:51;4.60;99.90
41592;DHT22;28026;48.562;14.440;2023-12-20T00:23:22;4.70;99.90
41592;DHT22;28026;48.562;14.440;2023-12-20T00:25:53;4.60;99.90
41592;DHT22;28026;48.562;14.440;2023-12-20T00:28:24;4.60;99.90
41592;DHT22;28026;48.562;14.440;2023-12-20T00:30:55;4.50;99.90
41592;DHT22;28026;48.562;14.440;2023-12-20T00:33:26;4.50;99.90
41592;DHT22;28026;48.562;14.440;2023-12-20T00:35:57;4.60;99.90
41592;DHT22;28026;48.562;14.440;2023-12-20T00:38:28;4.50;99.90
41592;DHT22;28026;48.562;14.440;2023-12-20T00:40:59;4.50;99.90
41592;DHT22;28026;48.562;14.440;2023-12-20T00:43:30;4.50;99.90
41592;DHT22;28026;48.562;14.440;2023-12-20T00:46:01;4.40;99.90
41592;DHT22;28026;48.562;14.440;2023-12-20T00:48:31;4.40;99.90
41592;DHT22;28026;48.562;14.440;2023-12-20T00:51:02;4.50;99.90
41592;DHT22;28026;48.562;14.440;2023-12-20T00:53:34;4.40;99.90
41592;DHT22;28026;48.562;14.440;2023-12-20T00:56:05;4.40;99.90
41592;DHT22;28026;48.562;14.440;2023-12-20T00:58:36;4.30;99.90
41592;DHT22;28026;48.562;14.440;2023-12-20T01:01:07;4.40;99.90
41592;DHT22;28026;48.562;14.440;2023-12-20T01:03:38;4.40;99.90
41592;DHT22;28026;48.562;14.440;2023-12-20T01:06:09;4.40;99.90
41592;DHT22;28026;48.562;14.440;2023-12-20T01:08:40;4.40;99.90
41592;DHT22;28026;48.562;14.440;2023-12-20T01:11:11;4.30;99.90
41592;DHT22;28026;48.562;14.440;2023-12-20T01:13:42;4.40;99.90
41592;DHT22;28026;48.562;14.440;2023-12-20T01:16:13;4.30;99.90
41592;DHT22;28026;48.562;14.440;2023-12-20T01:18:43;4.40;99.90
41592;DHT22;28026;48.562;14.440;2023-12-20T01:21:14;4.40;99.90
41592;DHT22;28026;48.562;14.440;2023-12-20T01:23:45;4.40;99.90
41592;DHT22;28026;48.562;14.440;2023-12-20T01:26:16;4.30;99.90
41592;DHT22;28026;48.562;14.440;2023-12-20T01:28:47;4.30;99.90
41592;DHT22;28026;48.562;14.440;2023-12-20T01:31:18;4.40;99.90
41592;DHT22;28026;48.562;14.440;2023-12-20T01:33:48;4.40;99.90
41592;DHT22;28026;48.562;14.440;2023-12-20T01:36:19;4.40;99.90
41592;DHT22;28026;48.562;14.440;2023-12-20T01:38:50;4.40;99.90
41592;DHT22;28026;48.562;14.440;2023-12-20T01:41:21;4.40;99.90
41592;DHT22;28026;48.562;14.440;2023-12-20T01:43:52;4.40;99.90
41592;DHT22;28026;48.562;14.440;2023-12-20T01:46:24;4.50;99.90
41592;DHT22;28026;48.562;14.440;2023-12-20T01:48:57;4.50;99.90
41592;DHT22;28026;48.562;14.440;2023-12-20T01:51:28;4.40;99.90
41592;DHT22;28026;48.562;14.440;2023-12-20T01:54:00;4.50;99.90
41592;DHT22;28026;48.562;14.440;2023-12-20T01:56:32;4.40;99.90
41592;DHT22;28026;48.562;14.440;2023-12-20T01:59:04;4.40;99.90
41592;DHT22;28026;48.562;14.440;2023-12-20T02:01:36;4.30;99.90
41592;DHT22;28026;48.562;14.440;2023-12-20T02:04:07;4.30;99.90
41592;DHT22;28026;48.562;14.440;2023-12-20T02:06:40;4.30;99.90
41592;DHT22;28026;48.562;14.440;2023-12-20T02:09:11;4.10;99.90
41592;DHT22;28026;48.562;14.440;2023-12-20T02:11:42;4.00;99.90
41592;DHT22;28026;48.562;14.440;2023-12-20T02:14:13;3.90;99.90
41592;DHT22;28026;48.562;14.440;2023-12-20T02:16:45;3.90;99.90
41592;DHT22;28026;48.562;14.440;2023-12-20T02:19:17;3.80;99.90
41592;DHT22;28026;48.562;14.440;2023-12-20T02:21:50;3.80;99.90
41592;DHT22;28026;48.562;14.440;2023-12-20T02:24:35;3.70;99.90
41592;DHT22;28026;48.562;14.440;2023-12-20T02:27:07;3.60;99.90
41592;DHT22;28026;48.562;14.440;2023-12-20T02:29:38;3.60;99.90
41592;DHT22;28026;48.562;14.440;2023-12-20T02:32:09;3.60;99.90
41592;DHT22;28026;48.562;14.440;2023-12-20T02:34:40;3.60;99.90
41592;DHT22;28026;48.562;14.440;2023-12-20T02:37:10;3.60;99.90
41592;DHT22;28026;48.562;14.440;2023-12-20T02:39:41;3.70;99.90
41592;DHT22;28026;48.562;14.440;2023-12-20T02:42:12;3.60;99.90
41592;DHT22;28026;48.562;14.440;2023-12-20T02:44:44;3.70;99.90
41592;DHT22;28026;48.562;14.440;2023-12-20T02:47:14;3.70;99.90
41592;DHT22;28026;48.562;14.440;2023-12-20T02:49:45;3.70;99.90
41592;DHT22;28026;48.562;14.440;2023-12-20T02:52:16;3.60;99.90
41592;DHT22;28026;48.562;14.440;2023-12-20T02:54:47;3.60;99.90
41592;DHT22;28026;48.562;14.440;2023-12-20T02:57:18;3.60;99.90
41592;DHT22;28026;48.562;14.440;2023-12-20T02:59:49;3.60;99.90
41592;DHT22;28026;48.562;14.440;2023-12-20T03:02:20;3.50;99.90
41592;DHT22;28026;48.562;14.440;2023-12-20T03:04:50;3.50;99.90
41592;DHT22;28026;48.562;14.440;2023-12-20T03:07:21;3.50;99.90
41592;DHT22;28026;48.562;14.440;2023-12-20T03:09:52;3.50;99.90
41592;DHT22;28026;48.562;14.440;2023-12-20T03:12:23;3.40;99.90
41592;DHT22;28026;48.562;14.440;2023-12-20T03:14:54;3.40;99.90
41592;DHT22;28026;48.562;14.440;2023-12-20T03:17:25;3.50;99.90
41592;DHT22;28026;48.562;14.440;2023-12-20T03:19:55;3.40;99.90
41592;DHT22;28026;48.562;14.440;2023-12-20T03:22:26;3.30;99.90
41592;DHT22;28026;48.562;14.440;2023-12-20T03:24:57;3.30;99.90
41592;DHT22;28026;48.562;14.440;2023-12-20T03:27:28;3.40;99.90
41592;DHT22;28026;48.562;14.440;2023-12-20T03:29:59;3.30;99.90
41592;DHT22;28026;48.562;14.440;2023-12-20T03:32:29;3.30;99.90
41592;DHT22;28026;48.562;14.440;2023-12-20T03:35:00;3.30;99.90
41592;DHT22;28026;48.562;14.440;2023-12-20T03:37:31;3.30;99.90
41592;DHT22;28026;48.562;14.440;2023-12-20T03:40:03;3.20;99.90
41592;DHT22;28026;48.562;14.440;2023-12-20T03:42:34;3.20;99.90
41592;DHT22;28026;48.562;14.440;2023-12-20T03:45:05;3.20;99.90
41592;DHT22;28026;48.562;14.440;2023-12-20T03:47:37;3.20;99.90
41592;DHT22;28026;48.562;14.440;2023-12-20T03:50:08;3.20;99.90
41592;DHT22;28026;48.562;14.440;2023-12-20T03:52:39;3.10;99.90
41592;DHT22;28026;48.562;14.440;2023-12-20T03:55:10;3.10;99.90
41592;DHT22;28026;48.562;14.440;2023-12-20T03:57:40;3.00;99.90
41592;DHT22;28026;48.562;14.440;2023-12-20T04:00:12;3.00;99.90
41592;DHT22;28026;48.562;14.440;2023-12-20T04:02:43;3.00;99.90
41592;DHT22;28026;48.562;14.440;2023-12-20T04:05:14;3.00;99.90
41592;DHT22;28026;48.562;14.440;2023-12-20T04:07:45;3.00;99.90
41592;DHT22;28026;48.562;14.440;2023-12-20T04:10:16;3.00;99.90
41592;DHT22;28026;48.562;14.440;2023-12-20T04:12:47;3.00;99.90
41592;DHT22;28026;48.562;14.440;2023-12-20T04:15:17;3.00;99.90
41592;DHT22;28026;48.562;14.440;2023-12-20T04:17:48;3.00;99.90
41592;DHT22;28026;48.562;14.440;2023-12-20T04:20:19;3.00;99.90
41592;DHT22;28026;48.562;14.440;2023-12-20T04:22:50;3.00;99.90
41592;DHT22;28026;48.562;14.440;2023-12-20T04:25:21;3.00;99.90
41592;DHT22;28026;48.562;14.440;2023-12-20T04:27:52;3.00;99.90
41592;DHT22;28026;48.562;14.440;2023-12-20T04:30:22;3.10;99.90
41592;DHT22;28026;48.562;14.440;2023-12-20T04:32:53;3.10;99.90
41592;DHT22;28026;48.562;14.440;2023-12-20T04:35:24;3.10;99.90
41592;DHT22;28026;48.562;14.440;2023-12-20T04:37:55;3.00;99.90
41592;DHT22;28026;48.562;14.440;2023-12-20T04:40:26;3.10;99.90
41592;DHT22;28026;48.562;14.440;2023-12-20T04:42:57;3.10;99.90
41592;DHT22;28026;48.562;14.440;2023-12-20T04:45:28;3.00;99.90
41592;DHT22;28026;48.562;14.440;2023-12-20T04:47:59;3.10;99.90
41592;DHT22;28026;48.562;14.440;2023-12-20T04:50:29;3.10;99.90
41592;DHT22;28026;48.562;14.440;2023-12-20T04:53:00;3.10;99.90
41592;DHT22;28026;48.562;14.440;2023-12-20T04:55:31;3.10;99.90
41592;DHT22;28026;48.562;14.440;2023-12-20T04:58:02;3.10;99.90
41592;DHT22;28026;48.562;14.440;2023-12-20T05:00:33;3.10;99.90
41592;DHT22;28026;48.562;14.440;2023-12-20T05:03:04;3.10;99.90
41592;DHT22;28026;48.562;14.440;2023-12-20T05:05:35;3.10;99.90
41592;DHT22;28026;48.562;14.440;2023-12-20T05:08:06;3.10;99.90
41592;DHT22;28026;48.562;14.440;2023-12-20T05:10:37;3.10;99.90
41592;DHT22;28026;48.562;14.440;2023-12-20T05:13:10;3.10;99.90
41592;DHT22;28026;48.562;14.440;2023-12-20T05:15:41;3.10;99.90
41592;DHT22;28026;48.562;14.440;2023-12-20T05:18:12;3.10;99.90
41592;DHT22;28026;48.562;14.440;2023-12-20T05:20:44;3.10;99.90
41592;DHT22;28026;48.562;14.440;2023-12-20T05:23:16;3.00;99.90
41592;DHT22;28026;48.562;14.440;2023-12-20T05:25:47;3.00;99.90
41592;DHT22;28026;48.562;14.440;2023-12-20T05:28:19;3.00;99.90
41592;DHT22;28026;48.562;14.440;2023-12-20T05:30:50;2.90;99.90
41592;DHT22;28026;48.562;14.440;2023-12-20T05:33:21;3.00;99.90
41592;DHT22;28026;48.562;14.440;2023-12-20T05:35:51;2.90;99.90
41592;DHT22;28026;48.562;14.440;2023-12-20T05:38:22;2.90;99.90
41592;DHT22;28026;48.562;14.440;2023-12-20T05:40:53;2.90;99.90
41592;DHT22;28026;48.562;14.440;2023-12-20T05:43:24;2.80;99.90
41592;DHT22;28026;48.562;14.440;2023-12-20T05:45:55;2.80;99.90
41592;DHT22;28026;48.562;14.440;2023-12-20T05:48:26;2.90;99.90
41592;DHT22;28026;48.562;14.440;2023-12-20T05:50:58;2.80;99.90
41592;DHT22;28026;48.562;14.440;2023-12-20T05:53:28;2.80;99.90
41592;DHT22;28026;48.562;14.440;2023-12-20T05:55:59;2.80;99.90
41592;DHT22;28026;48.562;14.440;2023-12-20T05:58:30;2.80;99.90
41592;DHT22;28026;48.562;14.440;2023-12-20T06:01:06;2.90;99.90
41592;DHT22;28026;48.562;14.440;2023-12-20T06:03:41;2.80;99.90
41592;DHT22;28026;48.562;14.440;2023-12-20T06:06:13;2.80;99.90
41592;DHT22;28026;48.562;14.440;2023-12-20T06:08:44;2.70;99.90
41592;DHT22;28026;48.562;14.440;2023-12-20T06:11:15;2.70;99.90
41592;DHT22;28026;48.562;14.440;2023-12-20T06:13:45;2.70;99.90
41592;DHT22;28026;48.562;14.440;2023-12-20T06:16:20;2.70;99.90
41592;DHT22;28026;48.562;14.440;2023-12-20T06:18:56;2.60;99.90
41592;DHT22;28026;48.562;14.440;2023-12-20T06:21:26;2.60;99.90
41592;DHT22;28026;48.562;14.440;2023-12-20T06:23:59;2.50;99.90
41592;DHT22;28026;48.562;14.440;2023-12-20T06:26:30;2.40;99.90
41592;DHT22;28026;48.562;14.440;2023-12-20T06:29:01;2.40;99.90
41592;DHT22;28026;48.562;14.440;2023-12-20T06:31:32;2.40;99.90
41592;DHT22;28026;48.562;14.440;2023-12-20T06:34:03;2.30;99.90
41592;DHT22;28026;48.562;14.440;2023-12-20T06:36:34;2.30;99.90
41592;DHT22;28026;48.562;14.440;2023-12-20T06:39:05;2.10;99.90
41592;DHT22;28026;48.562;14.440;2023-12-20T06:41:36;2.20;99.90
41592;DHT22;28026;48.562;14.440;2023-12-20T06:44:07;2.10;99.90
41592;DHT22;28026;48.562;14.440;2023-12-20T06:46:38;2.00;99.90
41592;DHT22;28026;48.562;14.440;2023-12-20T06:49:09;2.00;99.90
41592;DHT22;28026;48.562;14.440;2023-12-20T06:51:39;2.00;99.90
41592;DHT22;28026;48.562;14.440;2023-12-20T06:54:10;2.00;99.90
41592;DHT22;28026;48.562;14.440;2023-12-20T06:56:41;1.90;99.90
41592;DHT22;28026;48.562;14.440;2023-12-20T06:59:12;1.90;99.90
41592;DHT22;28026;48.562;14.440;2023-12-20T07:01:48;1.90;99.90
41592;DHT22;28026;48.562;14.440;2023-12-20T07:04:19;1.90;99.90
41592;DHT22;28026;48.562;14.440;2023-12-20T07:06:52;1.80;99.90
41592;DHT22;28026;48.562;14.440;2023-12-20T07:09:27;1.80;99.90
41592;DHT22;28026;48.562;14.440;2023-12-20T07:11:57;1.70;99.90
41592;DHT22;28026;48.562;14.440;2023-12-20T07:14:29;1.60;99.90
41592;DHT22;28026;48.562;14.440;2023-12-20T07:16:59;1.60;99.90
41592;DHT22;28026;48.562;14.440;2023-12-20T07:19:30;1.50;99.90
41592;DHT22;28026;48.562;14.440;2023-12-20T07:22:02;1.50;99.90
41592;DHT22;28026;48.562;14.440;2023-12-20T07:24:34;1.50;99.90
41592;DHT22;28026;48.562;14.440;2023-12-20T07:27:05;1.40;99.90
41592;DHT22;28026;48.562;14.440;2023-12-20T07:29:36;1.50;99.90
41592;DHT22;28026;48.562;14.440;2023-12-20T07:32:07;1.50;99.90
41592;DHT22;28026;48.562;14.440;2023-12-20T07:34:38;1.40;99.90
41592;DHT22;28026;48.562;14.440;2023-12-20T07:37:09;1.40;99.90
41592;DHT22;28026;48.562;14.440;2023-12-20T07:39:42;1.60;99.90
41592;DHT22;28026;48.562;14.440;2023-12-20T07:42:13;1.50;99.90
41592;DHT22;28026;48.562;14.440;2023-12-20T07:44:44;1.50;99.90
41592;DHT22;28026;48.562;14.440;2023-12-20T07:47:15;1.50;99.90
41592;DHT22;28026;48.562;14.440;2023-12-20T07:49:51;1.50;99.90
41592;DHT22;28026;48.562;14.440;2023-12-20T07:52:23;1.50;99.90
41592;DHT22;28026;48.562;14.440;2023-12-20T07:54:54;1.40;99.90
41592;DHT22;28026;48.562;14.440;2023-12-20T07:57:24;1.50;99.90
41592;DHT22;28026;48.562;14.440;2023-12-20T07:59:55;1.60;99.90
41592;DHT22;28026;48.562;14.440;2023-12-20T08:02:26;1.60;99.90
41592;DHT22;28026;48.562;14.440;2023-12-20T08:04:57;1.70;99.90
41592;DHT22;28026;48.562;14.440;2023-12-20T08:07:28;1.70;99.90
41592;DHT22;28026;48.562;14.440;2023-12-20T08:09:59;1.70;99.90
41592;DHT22;28026;48.562;14.440;2023-12-20T08:12:30;1.70;99.90
41592;DHT22;28026;48.562;14.440;2023-12-20T08:15:01;1.70;99.90
41592;DHT22;28026;48.562;14.440;2023-12-20T08:17:34;1.70;99.90
41592;DHT22;28026;48.562;14.440;2023-12-20T08:20:05;1.60;99.90
41592;DHT22;28026;48.562;14.440;2023-12-20T08:22:37;1.70;99.90
41592;DHT22;28026;48.562;14.440;2023-12-20T08:25:08;1.70;99.90
41592;DHT22;28026;48.562;14.440;2023-12-20T08:27:42;1.70;99.90
41592;DHT22;28026;48.562;14.440;2023-12-20T08:30:13;1.70;99.90
41592;DHT22;28026;48.562;14.440;2023-12-20T08:32:44;1.80;99.90
41592;DHT22;28026;48.562;14.440;2023-12-20T08:35:15;1.90;99.90
41592;DHT22;28026;48.562;14.440;2023-12-20T08:37:45;1.90;99.90
41592;DHT22;28026;48.562;14.440;2023-12-20T08:40:16;1.90;99.90
41592;DHT22;28026;48.562;14.440;2023-12-20T08:42:47;1.90;99.90
41592;DHT22;28026;48.562;14.440;2023-12-20T08:45:18;2.00;99.90
41592;DHT22;28026;48.562;14.440;2023-12-20T08:47:49;2.00;99.90
41592;DHT22;28026;48.562;14.440;2023-12-20T08:50:20;1.90;99.90
41592;DHT22;28026;48.562;14.440;2023-12-20T08:52:51;1.90;99.90
41592;DHT22;28026;48.562;14.440;2023-12-20T08:55:22;1.90;99.90
41592;DHT22;28026;48.562;14.440;2023-12-20T08:57:53;1.80;99.90
41592;DHT22;28026;48.562;14.440;2023-12-20T09:00:24;1.80;99.90
41592;DHT22;28026;48.562;14.440;2023-12-20T09:02:57;1.80;99.90
41592;DHT22;28026;48.562;14.440;2023-12-20T09:05:28;1.80;99.90
41592;DHT22;28026;48.562;14.440;2023-12-20T09:07:59;1.80;99.90
41592;DHT22;28026;48.562;14.440;2023-12-20T09:10:30;1.80;99.90
41592;DHT22;28026;48.562;14.440;2023-12-20T09:13:01;1.90;99.90
41592;DHT22;28026;48.562;14.440;2023-12-20T09:15:32;1.90;99.90
41592;DHT22;28026;48.562;14.440;2023-12-20T09:18:04;1.90;99.90
41592;DHT22;28026;48.562;14.440;2023-12-20T09:20:36;1.90;99.90
41592;DHT22;28026;48.562;14.440;2023-12-20T09:23:06;1.90;99.90
41592;DHT22;28026;48.562;14.440;2023-12-20T09:25:37;2.00;99.90
41592;DHT22;28026;48.562;14.440;2023-12-20T09:28:08;2.00;99.90
41592;DHT22;28026;48.562;14.440;2023-12-20T09:30:40;2.00;99.90
41592;DHT22;28026;48.562;14.440;2023-12-20T09:33:12;2.00;99.90
41592;DHT22;28026;48.562;14.440;2023-12-20T09:35:43;2.00;99.90
41592;DHT22;28026;48.562;14.440;2023-12-20T09:38:14;2.00;99.90
41592;DHT22;28026;48.562;14.440;2023-12-20T09:40:46;2.10;99.90
41592;DHT22;28026;48.562;14.440;2023-12-20T09:43:20;2.10;99.90
41592;DHT22;28026;48.562;14.440;2023-12-20T09:46:00;2.20;99.90
41592;DHT22;28026;48.562;14.440;2023-12-20T09:48:36;2.10;99.90
41592;DHT22;28026;48.562;14.440;2023-12-20T09:51:11;2.20;99.90
41592;DHT22;28026;48.562;14.440;2023-12-20T09:53:43;2.10;99.90
41592;DHT22;28026;48.562;14.440;2023-12-20T09:56:16;2.10;99.90
41592;DHT22;28026;48.562;14.440;2023-12-20T09:58:47;2.20;99.90
41592;DHT22;28026;48.562;14.440;2023-12-20T10:01:19;2.20;99.90
41592;DHT22;28026;48.562;14.440;2023-12-20T10:03:51;2.30;99.90
41592;DHT22;28026;48.562;14.440;2023-12-20T10:06:25;2.20;99.90
41592;DHT22;28026;48.562;14.440;2023-12-20T10:08:56;2.20;99.90
41592;DHT22;28026;48.562;14.440;2023-12-20T10:11:27;2.20;99.90
41592;DHT22;28026;48.562;14.440;2023-12-20T10:14:01;2.30;99.90
41592;DHT22;28026;48.562;14.440;2023-12-20T10:16:33;2.30;99.90
41592;DHT22;28026;48.562;14.440;2023-12-20T10:19:04;2.40;99.90
41592;DHT22;28026;48.562;14.440;2023-12-20T10:21:35;2.30;99.90
41592;DHT22;28026;48.562;14.440;2023-12-20T10:24:06;2.30;99.90
41592;DHT22;28026;48.562;14.440;2023-12-20T10:26:37;2.30;99.90
41592;DHT22;28026;48.562;14.440;2023-12-20T10:29:08;2.30;99.90
41592;DHT22;28026;48.562;14.440;2023-12-20T10:31:40;2.30;99.90
41592;DHT22;28026;48.562;14.440;2023-12-20T10:34:13;2.40;99.90
41592;DHT22;28026;48.562;14.440;2023-12-20T10:36:44;2.40;99.90
41592;DHT22;28026;48.562;14.440;2023-12-20T10:39:15;2.30;99.90
41592;DHT22;28026;48.562;14.440;2023-12-20T10:41:48;2.40;99.90
41592;DHT22;28026;48.562;14.440;2023-12-20T10:44:20;2.40;99.90
41592;DHT22;28026;48.562;14.440;2023-12-20T10:46:51;2.40;99.90
41592;DHT22;28026;48.562;14.440;2023-12-20T10:49:29;2.40;99.90
41592;DHT22;28026;48.562;14.440;2023-12-20T10:52:06;2.50;99.90
41592;DHT22;28026;48.562;14.440;2023-12-20T10:54:40;2.50;99.90
41592;DHT22;28026;48.562;14.440;2023-12-20T10:57:12;2.50;99.90
41592;DHT22;28026;48.562;14.440;2023-12-20T10:59:45;2.60;99.90
41592;DHT22;28026;48.562;14.440;2023-12-20T11:02:19;2.60;99.90
41592;DHT22;28026;48.562;14.440;2023-12-20T11:05:02;2.80;99.90
41592;DHT22;28026;48.562;14.440;2023-12-20T11:08:36;3.10;99.90
41592;DHT22;28026;48.562;14.440;2023-12-20T11:11:27;3.20;99.90
41592;DHT22;28026;48.562;14.440;2023-12-20T11:14:23;3.20;99.90
41592;DHT22;28026;48.562;14.440;2023-12-20T11:17:09;3.10;99.90
41592;DHT22;28026;48.562;14.440;2023-12-20T11:22:31;3.30;99.90
41592;DHT22;28026;48.562;14.440;2023-12-20T11:25:08;3.30;99.90
41592;DHT22;28026;48.562;14.440;2023-12-20T11:27:42;3.20;99.90
41592;DHT22;28026;48.562;14.440;2023-12-20T11:30:14;3.10;99.90
41592;DHT22;28026;48.562;14.440;2023-12-20T11:32:46;3.20;99.90
41592;DHT22;28026;48.562;14.440;2023-12-20T11:35:19;3.10;99.90
41592;DHT22;28026;48.562;14.440;2023-12-20T11:37:51;3.20;99.90
41592;DHT22;28026;48.562;14.440;2023-12-20T11:40:23;3.20;99.90
41592;DHT22;28026;48.562;14.440;2023-12-20T11:42:55;3.20;99.90
41592;DHT22;28026;48.562;14.440;2023-12-20T11:45:26;3.10;99.90
41592;DHT22;28026;48.562;14.440;2023-12-20T11:47:58;3.10;99.90
41592;DHT22;28026;48.562;14.440;2023-12-20T11:50:29;3.00;99.90
41592;DHT22;28026;48.562;14.440;2023-12-20T11:53:01;3.00;99.90
41592;DHT22;28026;48.562;14.440;2023-12-20T11:55:33;3.00;99.90
41592;DHT22;28026;48.562;14.440;2023-12-20T11:58:04;3.00;99.90
41592;DHT22;28026;48.562;14.440;2023-12-20T12:00:35;3.10;99.90
41592;DHT22;28026;48.562;14.440;2023-12-20T12:03:06;3.10;99.90
41592;DHT22;28026;48.562;14.440;2023-12-20T12:05:37;3.40;99.90
41592;DHT22;28026;48.562;14.440;2023-12-20T12:08:08;3.70;99.90
41592;DHT22;28026;48.562;14.440;2023-12-20T12:10:39;3.80;99.90
41592;DHT22;28026;48.562;14.440;2023-12-20T12:13:10;3.80;99.90
41592;DHT22;28026;48.562;14.440;2023-12-20T12:15:42;3.90;99.90
41592;DHT22;28026;48.562;14.440;2023-12-20T12:18:16;3.90;99.90
41592;DHT22;28026;48.562;14.440;2023-12-20T12:20:48;3.90;99.90
41592;DHT22;28026;48.562;14.440;2023-12-20T12:23:25;3.60;99.90
41592;DHT22;28026;48.562;14.440;2023-12-20T12:25:56;3.60;99.90
41592;DHT22;28026;48.562;14.440;2023-12-20T12:28:27;3.40;99.90
41592;DHT22;28026;48.562;14.440;2023-12-20T12:31:03;3.40;99.90
41592;DHT22;28026;48.562;14.440;2023-12-20T12:33:34;3.50;99.90
41592;DHT22;28026;48.562;14.440;2023-12-20T12:36:05;3.40;99.90
41592;DHT22;28026;48.562;14.440;2023-12-20T12:38:38;3.30;99.90
41592;DHT22;28026;48.562;14.440;2023-12-20T12:41:09;3.30;99.90
41592;DHT22;28026;48.562;14.440;2023-12-20T12:43:41;3.30;99.90
41592;DHT22;28026;48.562;14.440;2023-12-20T12:46:12;3.20;99.90
41592;DHT22;28026;48.562;14.440;2023-12-20T12:48:43;3.10;99.90
41592;DHT22;28026;48.562;14.440;2023-12-20T12:51:14;3.10;99.90
41592;DHT22;28026;48.562;14.440;2023-12-20T12:53:45;3.00;99.90
41592;DHT22;28026;48.562;14.440;2023-12-20T12:56:15;3.10;99.90
41592;DHT22;28026;48.562;14.440;2023-12-20T12:58:47;2.90;99.90
41592;DHT22;28026;48.562;14.440;2023-12-20T13:01:18;3.00;99.90
41592;DHT22;28026;48.562;14.440;2023-12-20T13:03:49;3.00;99.90
41592;DHT22;28026;48.562;14.440;2023-12-20T13:06:20;3.00;99.90
41592;DHT22;28026;48.562;14.440;2023-12-20T13:08:51;2.90;99.90
41592;DHT22;28026;48.562;14.440;2023-12-20T13:11:21;3.00;99.90
41592;DHT22;28026;48.562;14.440;2023-12-20T13:13:52;3.00;99.90
41592;DHT22;28026;48.562;14.440;2023-12-20T13:16:23;3.00;99.90
41592;DHT22;28026;48.562;14.440;2023-12-20T13:18:55;2.90;99.90
41592;DHT22;28026;48.562;14.440;2023-12-20T13:21:26;3.00;99.90
41592;DHT22;28026;48.562;14.440;2023-12-20T13:23:57;2.80;99.90
41592;DHT22;28026;48.562;14.440;2023-12-20T13:26:28;2.80;99.90
41592;DHT22;28026;48.562;14.440;2023-12-20T13:28:59;2.80;99.90
41592;DHT22;28026;48.562;14.440;2023-12-20T13:31:29;2.70;99.90
41592;DHT22;28026;48.562;14.440;2023-12-20T13:34:01;2.70;99.90
41592;DHT22;28026;48.562;14.440;2023-12-20T13:36:32;2.70;99.90
41592;DHT22;28026;48.562;14.440;2023-12-20T13:39:03;2.70;99.90
41592;DHT22;28026;48.562;14.440;2023-12-20T13:41:35;2.60;99.90
41592;DHT22;28026;48.562;14.440;2023-12-20T13:44:06;2.80;99.90
41592;DHT22;28026;48.562;14.440;2023-12-20T13:46:37;2.80;99.90
41592;DHT22;28026;48.562;14.440;2023-12-20T13:49:08;2.90;99.90
41592;DHT22;28026;48.562;14.440;2023-12-20T13:51:39;2.80;99.90
41592;DHT22;28026;48.562;14.440;2023-12-20T13:54:10;2.80;99.90
41592;DHT22;28026;48.562;14.440;2023-12-20T13:56:41;2.90;99.90
41592;DHT22;28026;48.562;14.440;2023-12-20T13:59:12;2.90;99.90
41592;DHT22;28026;48.562;14.440;2023-12-20T14:01:44;2.90;99.90
41592;DHT22;28026;48.562;14.440;2023-12-20T14:04:14;3.00;99.90
41592;DHT22;28026;48.562;14.440;2023-12-20T14:06:45;2.90;99.90
41592;DHT22;28026;48.562;14.440;2023-12-20T14:09:16;2.90;99.90
41592;DHT22;28026;48.562;14.440;2023-12-20T14:11:47;2.90;99.90
41592;DHT22;28026;48.562;14.440;2023-12-20T14:14:18;2.90;99.90
41592;DHT22;28026;48.562;14.440;2023-12-20T14:16:49;2.80;99.90
41592;DHT22;28026;48.562;14.440;2023-12-20T14:19:20;2.80;99.90
41592;DHT22;28026;48.562;14.440;2023-12-20T14:21:51;2.90;99.90
41592;DHT22;28026;48.562;14.440;2023-12-20T14:24:21;2.80;99.90
41592;DHT22;28026;48.562;14.440;2023-12-20T14:26:52;2.80;99.90
41592;DHT22;28026;48.562;14.440;2023-12-20T14:29:23;2.80;99.90
41592;DHT22;28026;48.562;14.440;2023-12-20T14:31:54;2.80;99.90
41592;DHT22;28026;48.562;14.440;2023-12-20T14:34:25;2.80;99.90
41592;DHT22;28026;48.562;14.440;2023-12-20T14:36:56;2.80;99.90
41592;DHT22;28026;48.562;14.440;2023-12-20T14:39:27;2.70;99.90
41592;DHT22;28026;48.562;14.440;2023-12-20T14:41:58;2.70;99.90
41592;DHT22;28026;48.562;14.440;2023-12-20T14:44:29;2.70;99.90
41592;DHT22;28026;48.562;14.440;2023-12-20T14:47:00;2.70;99.90
41592;DHT22;28026;48.562;14.440;2023-12-20T14:49:32;2.70;99.90
41592;DHT22;28026;48.562;14.440;2023-12-20T14:52:04;2.90;99.90
41592;DHT22;28026;48.562;14.440;2023-12-20T14:54:35;2.80;99.90
41592;DHT22;28026;48.562;14.440;2023-12-20T14:57:06;2.80;99.90
41592;DHT22;28026;48.562;14.440;2023-12-20T14:59:38;2.60;99.90
41592;DHT22;28026;48.562;14.440;2023-12-20T15:02:09;2.50;99.90
41592;DHT22;28026;48.562;14.440;2023-12-20T15:04:40;2.40;99.90
41592;DHT22;28026;48.562;14.440;2023-12-20T15:07:11;2.30;99.90
41592;DHT22;28026;48.562;14.440;2023-12-20T15:09:42;2.20;99.90
41592;DHT22;28026;48.562;14.440;2023-12-20T15:12:16;2.30;99.90
41592;DHT22;28026;48.562;14.440;2023-12-20T15:14:47;2.20;99.90
41592;DHT22;28026;48.562;14.440;2023-12-20T15:17:18;2.20;99.90
41592;DHT22;28026;48.562;14.440;2023-12-20T15:19:48;2.20;99.90
41592;DHT22;28026;48.562;14.440;2023-12-20T15:22:19;2.30;99.90
41592;DHT22;28026;48.562;14.440;2023-12-20T15:24:50;2.30;99.90
41592;DHT22;28026;48.562;14.440;2023-12-20T15:27:22;2.30;99.90
41592;DHT22;28026;48.562;14.440;2023-12-20T15:29:53;2.30;99.90
41592;DHT22;28026;48.562;14.440;2023-12-20T15:32:23;2.30;99.90
41592;DHT22;28026;48.562;14.440;2023-12-20T15:34:54;2.30;99.90
41592;DHT22;28026;48.562;14.440;2023-12-20T15:37:26;2.30;99.90
41592;DHT22;28026;48.562;14.440;2023-12-20T15:39:57;2.40;99.90
41592;DHT22;28026;48.562;14.440;2023-12-20T15:42:28;2.40;99.90
41592;DHT22;28026;48.562;14.440;2023-12-20T15:45:01;2.30;99.90
41592;DHT22;28026;48.562;14.440;2023-12-20T15:47:37;2.30;99.90
41592;DHT22;28026;48.562;14.440;2023-12-20T15:50:08;2.20;99.90
41592;DHT22;28026;48.562;14.440;2023-12-20T15:52:39;2.20;99.90
41592;DHT22;28026;48.562;14.440;2023-12-20T15:55:10;2.20;99.90
41592;DHT22;28026;48.562;14.440;2023-12-20T15:57:41;2.20;99.90
41592;DHT22;28026;48.562;14.440;2023-12-20T16:00:12;2.20;99.90